EmailTwitter


Observations de surface / Québec / CYQB (71714)

Régions: Québec | Canada | États-Unis | Europe | France | UK | Ailleurs
Station
Affichage
Infos & localisation pour CYQB (71714) | Aide pour décoder les METARs

Observations prises le 2017-07-23 à 22H00 UTC à QUEBEC A, QB (CYQB)

Etat du ciel: quelques nuages.

Température: 22.0 Celsius

Point de rosée: 8.0 Celsius

Humidité relative: 41%

Vents: Sud-ouest à 17 km/h ou 9 noeuds.

Rafale du vent: 28 km/h ou 15 noeuds.

Pression au niveau moyen de la mer: 101.16 kilopascals.

Calage altimétrique: 101.15 kilopascals ou 29.87 pouces de mercure.

Visibilité horizontale: 30.00 milles terrestres ou 48.00 kilomètres.

Observation METAR:

CYQB 232200Z 24009G15KT 30SM FEW085 FEW250 22/08 A2987 RMK AC1CI1 AC TR CI TR

SLP116 DENSITY ALT 1300FT=